sensor_id;sensor_type;location;lat;lon;timestamp;temperature;humidity
2441;DHT22;1231;53.988;9.470;2023-07-13T00:02:05;16.30;85.70
2441;DHT22;1231;53.988;9.470;2023-07-13T00:04:54;16.20;85.60
2441;DHT22;1231;53.988;9.470;2023-07-13T00:07:43;16.20;85.50
2441;DHT22;1231;53.988;9.470;2023-07-13T00:13:30;16.30;85.40
2441;DHT22;1231;53.988;9.470;2023-07-13T00:27:43;16.30;85.70
2441;DHT22;1231;53.988;9.470;2023-07-13T00:41:52;16.40;86.20
2441;DHT22;1231;53.988;9.470;2023-07-13T00:53:12;16.40;86.20
2441;DHT22;1231;53.988;9.470;2023-07-13T00:58:53;16.30;86.20
2441;DHT22;1231;53.988;9.470;2023-07-13T01:04:32;16.30;86.40
2441;DHT22;1231;53.988;9.470;2023-07-13T01:10:12;16.20;86.30
2441;DHT22;1231;53.988;9.470;2023-07-13T01:21:33;16.10;86.30
2441;DHT22;1231;53.988;9.470;2023-07-13T01:41:25;16.20;87.40
2441;DHT22;1231;53.988;9.470;2023-07-13T01:47:04;16.10;87.40
2441;DHT22;1231;53.988;9.470;2023-07-13T02:06:53;16.20;87.60
2441;DHT22;1231;53.988;9.470;2023-07-13T02:09:44;16.30;87.60
2441;DHT22;1231;53.988;9.470;2023-07-13T02:12:34;16.30;87.60
2441;DHT22;1231;53.988;9.470;2023-07-13T02:23:55;16.40;88.00
2441;DHT22;1231;53.988;9.470;2023-07-13T02:26:44;16.40;88.00
2441;DHT22;1231;53.988;9.470;2023-07-13T02:35:14;16.40;88.10
2441;DHT22;1231;53.988;9.470;2023-07-13T02:40:53;16.50;88.00
2441;DHT22;1231;53.988;9.470;2023-07-13T02:49:23;16.50;88.10
2441;DHT22;1231;53.988;9.470;2023-07-13T03:03:30;16.40;88.20
2441;DHT22;1231;53.988;9.470;2023-07-13T03:06:20;16.50;88.20
2441;DHT22;1231;53.988;9.470;2023-07-13T03:20:33;16.50;88.40
2441;DHT22;1231;53.988;9.470;2023-07-13T03:29:05;16.60;88.50
2441;DHT22;1231;53.988;9.470;2023-07-13T03:54:33;17.00;87.30
2441;DHT22;1231;53.988;9.470;2023-07-13T04:00:12;17.00;87.20
2441;DHT22;1231;53.988;9.470;2023-07-13T04:03:01;17.10;87.10
2441;DHT22;1231;53.988;9.470;2023-07-13T04:05:50;17.00;87.20
2441;DHT22;1231;53.988;9.470;2023-07-13T04:22:49;17.50;86.90
2441;DHT22;1231;53.988;9.470;2023-07-13T04:25:38;17.70;86.70
2441;DHT22;1231;53.988;9.470;2023-07-13T04:28:27;17.70;86.50
2441;DHT22;1231;53.988;9.470;2023-07-13T04:36:56;18.80;84.70
2441;DHT22;1231;53.988;9.470;2023-07-13T04:39:45;18.90;83.70
2441;DHT22;1231;53.988;9.470;2023-07-13T04:59:34;18.40;82.60
2441;DHT22;1231;53.988;9.470;2023-07-13T05:13:42;18.20;82.80
2441;DHT22;1231;53.988;9.470;2023-07-13T05:19:21;18.10;83.10
2441;DHT22;1231;53.988;9.470;2023-07-13T05:22:11;18.20;83.40
2441;DHT22;1231;53.988;9.470;2023-07-13T05:25:05;18.30;83.50
2441;DHT22;1231;53.988;9.470;2023-07-13T05:27:58;18.30;83.40
2441;DHT22;1231;53.988;9.470;2023-07-13T05:30:50;18.30;83.30
2441;DHT22;1231;53.988;9.470;2023-07-13T05:33:40;18.40;83.20
2441;DHT22;1231;53.988;9.470;2023-07-13T05:39:19;18.50;83.00
2441;DHT22;1231;53.988;9.470;2023-07-13T05:42:08;18.60;82.80
2441;DHT22;1231;53.988;9.470;2023-07-13T05:47:47;18.70;81.90
2441;DHT22;1231;53.988;9.470;2023-07-13T05:53:26;18.80;81.90
2441;DHT22;1231;53.988;9.470;2023-07-13T05:56:15;18.90;82.00
2441;DHT22;1231;53.988;9.470;2023-07-13T05:59:05;19.00;81.90
2441;DHT22;1231;53.988;9.470;2023-07-13T06:01:54;19.00;81.60
2441;DHT22;1231;53.988;9.470;2023-07-13T06:04:43;19.10;81.50
2441;DHT22;1231;53.988;9.470;2023-07-13T06:07:32;19.10;81.20
2441;DHT22;1231;53.988;9.470;2023-07-13T06:10:21;19.10;81.20
2441;DHT22;1231;53.988;9.470;2023-07-13T06:16:00;19.10;80.80
2441;DHT22;1231;53.988;9.470;2023-07-13T06:18:49;19.20;80.80
2441;DHT22;1231;53.988;9.470;2023-07-13T06:21:38;19.20;80.70
2441;DHT22;1231;53.988;9.470;2023-07-13T06:27:17;19.10;80.60
2441;DHT22;1231;53.988;9.470;2023-07-13T06:30:07;19.30;80.30
2441;DHT22;1231;53.988;9.470;2023-07-13T06:32:56;19.40;80.20
2441;DHT22;1231;53.988;9.470;2023-07-13T06:35:45;19.60;80.20
2441;DHT22;1231;53.988;9.470;2023-07-13T06:38:34;20.00;80.50
2441;DHT22;1231;53.988;9.470;2023-07-13T06:47:05;21.40;75.20
2441;DHT22;1231;53.988;9.470;2023-07-13T06:49:54;21.30;74.70
2441;DHT22;1231;53.988;9.470;2023-07-13T06:52:43;21.50;74.50
2441;DHT22;1231;53.988;9.470;2023-07-13T06:55:32;22.10;74.00
2441;DHT22;1231;53.988;9.470;2023-07-13T06:58:22;23.00;71.40
2441;DHT22;1231;53.988;9.470;2023-07-13T07:01:11;23.90;69.10
2441;DHT22;1231;53.988;9.470;2023-07-13T07:04:01;24.60;67.20
2441;DHT22;1231;53.988;9.470;2023-07-13T07:06:50;25.10;65.40
2441;DHT22;1231;53.988;9.470;2023-07-13T07:09:39;25.40;64.00
2441;DHT22;1231;53.988;9.470;2023-07-13T07:12:28;25.20;63.30
2441;DHT22;1231;53.988;9.470;2023-07-13T07:15:18;25.30;63.10
2441;DHT22;1231;53.988;9.470;2023-07-13T07:18:07;24.80;63.30
2441;DHT22;1231;53.988;9.470;2023-07-13T07:20:56;25.00;63.70
2441;DHT22;1231;53.988;9.470;2023-07-13T07:23:46;24.80;63.80
2441;DHT22;1231;53.988;9.470;2023-07-13T07:26:35;24.50;64.40
2441;DHT22;1231;53.988;9.470;2023-07-13T07:32:15;24.00;65.50
2441;DHT22;1231;53.988;9.470;2023-07-13T07:35:04;23.90;66.20
2441;DHT22;1231;53.988;9.470;2023-07-13T07:37:54;23.70;66.50
2441;DHT22;1231;53.988;9.470;2023-07-13T07:40:43;23.60;67.00
2441;DHT22;1231;53.988;9.470;2023-07-13T07:43:33;23.60;67.10
2441;DHT22;1231;53.988;9.470;2023-07-13T07:46:22;23.40;67.20
2441;DHT22;1231;53.988;9.470;2023-07-13T07:49:11;23.30;67.50
2441;DHT22;1231;53.988;9.470;2023-07-13T07:52:00;23.40;68.00
2441;DHT22;1231;53.988;9.470;2023-07-13T07:54:49;23.50;68.30
2441;DHT22;1231;53.988;9.470;2023-07-13T07:57:38;23.60;67.40
2441;DHT22;1231;53.988;9.470;2023-07-13T08:00:27;23.70;67.30
2441;DHT22;1231;53.988;9.470;2023-07-13T08:06:10;23.70;66.80
2441;DHT22;1231;53.988;9.470;2023-07-13T08:08:59;23.70;66.50
2441;DHT22;1231;53.988;9.470;2023-07-13T08:11:48;23.70;67.40
2441;DHT22;1231;53.988;9.470;2023-07-13T08:14:38;24.00;66.90
2441;DHT22;1231;53.988;9.470;2023-07-13T08:17:27;24.10;66.40
2441;DHT22;1231;53.988;9.470;2023-07-13T08:20:16;24.10;66.00
2441;DHT22;1231;53.988;9.470;2023-07-13T08:23:11;23.90;65.70
2441;DHT22;1231;53.988;9.470;2023-07-13T08:26:01;24.20;66.80
2441;DHT22;1231;53.988;9.470;2023-07-13T08:28:50;24.30;65.20
2441;DHT22;1231;53.988;9.470;2023-07-13T08:31:40;24.40;65.20
2441;DHT22;1231;53.988;9.470;2023-07-13T08:34:29;24.30;65.10
2441;DHT22;1231;53.988;9.470;2023-07-13T08:37:18;23.90;64.30
2441;DHT22;1231;53.988;9.470;2023-07-13T08:40:10;23.60;65.80
2441;DHT22;1231;53.988;9.470;2023-07-13T08:43:00;23.50;66.60
2441;DHT22;1231;53.988;9.470;2023-07-13T08:45:53;23.30;66.50
2441;DHT22;1231;53.988;9.470;2023-07-13T08:48:58;23.20;67.30
2441;DHT22;1231;53.988;9.470;2023-07-13T08:52:07;22.90;67.30
2441;DHT22;1231;53.988;9.470;2023-07-13T08:55:16;22.60;67.90
2441;DHT22;1231;53.988;9.470;2023-07-13T08:58:11;22.50;68.70
2441;DHT22;1231;53.988;9.470;2023-07-13T09:01:15;22.50;69.40
2441;DHT22;1231;53.988;9.470;2023-07-13T09:10:23;23.00;67.00
2441;DHT22;1231;53.988;9.470;2023-07-13T09:13:36;23.10;66.00
2441;DHT22;1231;53.988;9.470;2023-07-13T09:19:24;23.40;67.00
2441;DHT22;1231;53.988;9.470;2023-07-13T09:22:19;23.60;66.10
2441;DHT22;1231;53.988;9.470;2023-07-13T09:28:24;24.10;64.90
2441;DHT22;1231;53.988;9.470;2023-07-13T09:31:16;24.00;57.70
2441;DHT22;1231;53.988;9.470;2023-07-13T09:34:12;23.80;60.00
2441;DHT22;1231;53.988;9.470;2023-07-13T09:37:02;23.70;58.50
2441;DHT22;1231;53.988;9.470;2023-07-13T09:39:54;23.50;58.70
2441;DHT22;1231;53.988;9.470;2023-07-13T09:42:45;23.30;58.20
2441;DHT22;1231;53.988;9.470;2023-07-13T09:45:34;23.20;58.70
2441;DHT22;1231;53.988;9.470;2023-07-13T09:48:25;23.40;57.80
2441;DHT22;1231;53.988;9.470;2023-07-13T09:54:24;23.60;58.60
2441;DHT22;1231;53.988;9.470;2023-07-13T09:57:16;23.50;57.70
2441;DHT22;1231;53.988;9.470;2023-07-13T10:00:07;23.30;58.40
2441;DHT22;1231;53.988;9.470;2023-07-13T10:03:22;23.20;58.50
2441;DHT22;1231;53.988;9.470;2023-07-13T10:06:17;23.00;57.90
2441;DHT22;1231;53.988;9.470;2023-07-13T10:09:08;22.80;58.50
2441;DHT22;1231;53.988;9.470;2023-07-13T10:11:57;22.90;60.00
2441;DHT22;1231;53.988;9.470;2023-07-13T10:14:47;22.60;61.30
2441;DHT22;1231;53.988;9.470;2023-07-13T10:17:37;22.20;62.40
2441;DHT22;1231;53.988;9.470;2023-07-13T10:20:26;21.80;63.90
2441;DHT22;1231;53.988;9.470;2023-07-13T10:23:21;21.50;64.60
2441;DHT22;1231;53.988;9.470;2023-07-13T10:26:30;21.20;65.50
2441;DHT22;1231;53.988;9.470;2023-07-13T10:29:22;21.10;66.20
2441;DHT22;1231;53.988;9.470;2023-07-13T10:32:13;20.80;67.40
2441;DHT22;1231;53.988;9.470;2023-07-13T10:35:03;20.70;68.50
2441;DHT22;1231;53.988;9.470;2023-07-13T10:38:06;20.70;69.50
2441;DHT22;1231;53.988;9.470;2023-07-13T10:41:06;20.60;70.40
2441;DHT22;1231;53.988;9.470;2023-07-13T10:43:57;20.70;71.20
2441;DHT22;1231;53.988;9.470;2023-07-13T10:46:48;20.80;72.10
2441;DHT22;1231;53.988;9.470;2023-07-13T10:49:37;20.80;72.10
2441;DHT22;1231;53.988;9.470;2023-07-13T10:52:49;20.70;71.90
2441;DHT22;1231;53.988;9.470;2023-07-13T10:58:42;20.60;73.10
2441;DHT22;1231;53.988;9.470;2023-07-13T11:01:57;20.70;75.70
2441;DHT22;1231;53.988;9.470;2023-07-13T11:04:48;20.90;76.10
2441;DHT22;1231;53.988;9.470;2023-07-13T11:07:53;21.00;76.80
2441;DHT22;1231;53.988;9.470;2023-07-13T11:10:50;21.60;76.70
2441;DHT22;1231;53.988;9.470;2023-07-13T11:16:44;22.10;72.00
2441;DHT22;1231;53.988;9.470;2023-07-13T11:19:40;22.30;71.80
2441;DHT22;1231;53.988;9.470;2023-07-13T11:22:52;22.50;72.40
2441;DHT22;1231;53.988;9.470;2023-07-13T11:25:42;22.70;69.70
2441;DHT22;1231;53.988;9.470;2023-07-13T11:28:31;22.80;69.40
2441;DHT22;1231;53.988;9.470;2023-07-13T11:31:22;22.70;68.40
2441;DHT22;1231;53.988;9.470;2023-07-13T11:34:15;22.70;66.90
2441;DHT22;1231;53.988;9.470;2023-07-13T11:37:12;22.80;66.30
2441;DHT22;1231;53.988;9.470;2023-07-13T11:40:04;23.00;64.80
2441;DHT22;1231;53.988;9.470;2023-07-13T11:42:59;23.00;65.10
2441;DHT22;1231;53.988;9.470;2023-07-13T11:45:50;23.30;64.40
2441;DHT22;1231;53.988;9.470;2023-07-13T11:48:39;23.30;61.70
2441;DHT22;1231;53.988;9.470;2023-07-13T11:51:31;23.40;61.80
2441;DHT22;1231;53.988;9.470;2023-07-13T12:00:18;23.20;62.30
2441;DHT22;1231;53.988;9.470;2023-07-13T12:03:08;23.00;62.50
2441;DHT22;1231;53.988;9.470;2023-07-13T12:06:05;22.90;62.60
2441;DHT22;1231;53.988;9.470;2023-07-13T12:08:59;22.80;61.80
2441;DHT22;1231;53.988;9.470;2023-07-13T12:11:48;22.70;61.80
2441;DHT22;1231;53.988;9.470;2023-07-13T12:14:37;22.90;61.50
2441;DHT22;1231;53.988;9.470;2023-07-13T12:17:26;22.90;62.10
2441;DHT22;1231;53.988;9.470;2023-07-13T12:20:23;23.20;60.80
2441;DHT22;1231;53.988;9.470;2023-07-13T12:26:18;23.40;59.20
2441;DHT22;1231;53.988;9.470;2023-07-13T12:29:16;23.10;59.50
2441;DHT22;1231;53.988;9.470;2023-07-13T12:32:09;22.90;60.60
2441;DHT22;1231;53.988;9.470;2023-07-13T12:35:14;22.70;60.70
2441;DHT22;1231;53.988;9.470;2023-07-13T12:38:08;22.40;61.80
2441;DHT22;1231;53.988;9.470;2023-07-13T12:40:59;22.30;63.00
2441;DHT22;1231;53.988;9.470;2023-07-13T12:43:50;22.20;63.60
2441;DHT22;1231;53.988;9.470;2023-07-13T12:46:52;22.30;63.90
2441;DHT22;1231;53.988;9.470;2023-07-13T12:49:48;22.20;64.40
2441;DHT22;1231;53.988;9.470;2023-07-13T12:52:38;22.40;64.90
2441;DHT22;1231;53.988;9.470;2023-07-13T12:55:27;22.40;64.40
2441;DHT22;1231;53.988;9.470;2023-07-13T12:58:35;22.30;64.90
2441;DHT22;1231;53.988;9.470;2023-07-13T13:01:30;22.30;64.70
2441;DHT22;1231;53.988;9.470;2023-07-13T13:04:21;22.20;64.60
2441;DHT22;1231;53.988;9.470;2023-07-13T13:07:10;22.00;64.90
2441;DHT22;1231;53.988;9.470;2023-07-13T13:09:59;21.90;65.40
2441;DHT22;1231;53.988;9.470;2023-07-13T13:12:48;21.60;65.80
2441;DHT22;1231;53.988;9.470;2023-07-13T13:18:27;21.20;70.40
2441;DHT22;1231;53.988;9.470;2023-07-13T13:21:18;20.80;73.10
2441;DHT22;1231;53.988;9.470;2023-07-13T13:24:12;20.30;73.30
2441;DHT22;1231;53.988;9.470;2023-07-13T13:27:02;19.90;74.70
2441;DHT22;1231;53.988;9.470;2023-07-13T13:29:52;19.80;75.80
2441;DHT22;1231;53.988;9.470;2023-07-13T13:32:44;19.70;76.80
2441;DHT22;1231;53.988;9.470;2023-07-13T13:35:33;19.70;77.10
2441;DHT22;1231;53.988;9.470;2023-07-13T13:38:27;19.90;77.60
2441;DHT22;1231;53.988;9.470;2023-07-13T13:41:17;20.00;77.90
2441;DHT22;1231;53.988;9.470;2023-07-13T13:44:09;20.00;78.00
2441;DHT22;1231;53.988;9.470;2023-07-13T13:46:58;20.10;77.70
2441;DHT22;1231;53.988;9.470;2023-07-13T13:49:48;20.20;77.60
2441;DHT22;1231;53.988;9.470;2023-07-13T13:52:37;20.30;77.60
2441;DHT22;1231;53.988;9.470;2023-07-13T13:55:26;20.30;77.60
2441;DHT22;1231;53.988;9.470;2023-07-13T13:58:16;20.40;77.90
2441;DHT22;1231;53.988;9.470;2023-07-13T14:01:16;20.60;78.00
2441;DHT22;1231;53.988;9.470;2023-07-13T14:04:06;20.70;78.50
2441;DHT22;1231;53.988;9.470;2023-07-13T14:06:57;20.70;78.10
2441;DHT22;1231;53.988;9.470;2023-07-13T14:12:37;21.10;78.70
2441;DHT22;1231;53.988;9.470;2023-07-13T14:15:28;21.20;78.40
2441;DHT22;1231;53.988;9.470;2023-07-13T14:21:18;21.30;78.60
2441;DHT22;1231;53.988;9.470;2023-07-13T14:29:47;21.80;77.80
2441;DHT22;1231;53.988;9.470;2023-07-13T14:32:36;21.80;76.60
2441;DHT22;1231;53.988;9.470;2023-07-13T14:35:25;22.00;72.80
2441;DHT22;1231;53.988;9.470;2023-07-13T14:38:18;21.70;69.40
2441;DHT22;1231;53.988;9.470;2023-07-13T14:46:48;22.00;72.30
2441;DHT22;1231;53.988;9.470;2023-07-13T14:49:43;22.00;71.00
2441;DHT22;1231;53.988;9.470;2023-07-13T14:52:32;21.80;69.30
2441;DHT22;1231;53.988;9.470;2023-07-13T14:55:21;21.60;69.30
2441;DHT22;1231;53.988;9.470;2023-07-13T15:01:00;21.60;70.20
2441;DHT22;1231;53.988;9.470;2023-07-13T15:03:51;21.50;70.50
2441;DHT22;1231;53.988;9.470;2023-07-13T15:06:54;21.50;70.70
2441;DHT22;1231;53.988;9.470;2023-07-13T15:09:44;21.40;70.50
2441;DHT22;1231;53.988;9.470;2023-07-13T15:12:33;21.30;70.50
2441;DHT22;1231;53.988;9.470;2023-07-13T15:18:14;21.70;70.40
2441;DHT22;1231;53.988;9.470;2023-07-13T15:21:19;21.50;69.60
2441;DHT22;1231;53.988;9.470;2023-07-13T15:24:10;21.30;70.50
2441;DHT22;1231;53.988;9.470;2023-07-13T15:29:49;21.50;70.50
2441;DHT22;1231;53.988;9.470;2023-07-13T15:32:38;21.50;69.90
2441;DHT22;1231;53.988;9.470;2023-07-13T15:35:28;21.50;69.80
2441;DHT22;1231;53.988;9.470;2023-07-13T15:38:22;21.50;69.80
2441;DHT22;1231;53.988;9.470;2023-07-13T15:41:24;21.50;69.40
2441;DHT22;1231;53.988;9.470;2023-07-13T15:44:24;21.80;68.20
2441;DHT22;1231;53.988;9.470;2023-07-13T15:47:14;21.70;68.20
2441;DHT22;1231;53.988;9.470;2023-07-13T15:50:04;21.70;67.30
2441;DHT22;1231;53.988;9.470;2023-07-13T15:52:55;21.80;68.50
2441;DHT22;1231;53.988;9.470;2023-07-13T15:55:46;21.70;64.60
2441;DHT22;1231;53.988;9.470;2023-07-13T15:58:35;21.80;66.20
2441;DHT22;1231;53.988;9.470;2023-07-13T16:01:26;21.80;67.00
2441;DHT22;1231;53.988;9.470;2023-07-13T16:04:15;21.80;67.00
2441;DHT22;1231;53.988;9.470;2023-07-13T16:07:11;21.70;66.70
2441;DHT22;1231;53.988;9.470;2023-07-13T16:10:01;21.90;66.60
2441;DHT22;1231;53.988;9.470;2023-07-13T16:12:50;21.90;66.60
2441;DHT22;1231;53.988;9.470;2023-07-13T16:15:39;21.90;67.00
2441;DHT22;1231;53.988;9.470;2023-07-13T16:18:33;21.90;66.50
2441;DHT22;1231;53.988;9.470;2023-07-13T16:21:23;21.90;66.20
2441;DHT22;1231;53.988;9.470;2023-07-13T16:24:19;21.70;66.70
2441;DHT22;1231;53.988;9.470;2023-07-13T16:27:09;21.70;67.30
2441;DHT22;1231;53.988;9.470;2023-07-13T16:29:58;21.90;67.00
2441;DHT22;1231;53.988;9.470;2023-07-13T16:32:48;21.80;66.60
2441;DHT22;1231;53.988;9.470;2023-07-13T16:35:40;21.60;65.80
2441;DHT22;1231;53.988;9.470;2023-07-13T16:38:34;21.50;66.40
2441;DHT22;1231;53.988;9.470;2023-07-13T16:41:24;21.40;66.30
2441;DHT22;1231;53.988;9.470;2023-07-13T16:44:15;21.40;66.20
2441;DHT22;1231;53.988;9.470;2023-07-13T16:47:12;21.40;66.80
2441;DHT22;1231;53.988;9.470;2023-07-13T16:50:02;21.40;67.50
2441;DHT22;1231;53.988;9.470;2023-07-13T16:52:53;21.40;67.20
2441;DHT22;1231;53.988;9.470;2023-07-13T16:55:42;21.40;66.80
2441;DHT22;1231;53.988;9.470;2023-07-13T16:58:34;21.30;67.00
2441;DHT22;1231;53.988;9.470;2023-07-13T17:01:23;21.30;66.80
2441;DHT22;1231;53.988;9.470;2023-07-13T17:04:15;21.30;67.20
2441;DHT22;1231;53.988;9.470;2023-07-13T17:07:09;21.40;66.90
2441;DHT22;1231;53.988;9.470;2023-07-13T17:09:59;21.30;65.70
2441;DHT22;1231;53.988;9.470;2023-07-13T17:12:51;21.50;66.30
2441;DHT22;1231;53.988;9.470;2023-07-13T17:15:40;21.50;66.70
2441;DHT22;1231;53.988;9.470;2023-07-13T17:18:31;21.50;66.90
2441;DHT22;1231;53.988;9.470;2023-07-13T17:21:24;21.40;66.40
2441;DHT22;1231;53.988;9.470;2023-07-13T17:24:20;21.40;66.60
2441;DHT22;1231;53.988;9.470;2023-07-13T17:27:10;21.30;66.80
2441;DHT22;1231;53.988;9.470;2023-07-13T17:29:59;20.90;67.30
2441;DHT22;1231;53.988;9.470;2023-07-13T17:32:50;21.00;67.90
2441;DHT22;1231;53.988;9.470;2023-07-13T17:35:40;21.00;68.30
2441;DHT22;1231;53.988;9.470;2023-07-13T17:38:36;21.00;67.90
2441;DHT22;1231;53.988;9.470;2023-07-13T17:41:28;21.10;68.10
2441;DHT22;1231;53.988;9.470;2023-07-13T17:44:18;21.00;68.30
2441;DHT22;1231;53.988;9.470;2023-07-13T17:47:23;21.00;68.60
2441;DHT22;1231;53.988;9.470;2023-07-13T17:50:14;20.90;68.50
2441;DHT22;1231;53.988;9.470;2023-07-13T17:53:14;20.70;68.80
2441;DHT22;1231;53.988;9.470;2023-07-13T17:56:04;20.60;69.20
2441;DHT22;1231;53.988;9.470;2023-07-13T17:58:54;20.40;69.40
2441;DHT22;1231;53.988;9.470;2023-07-13T18:01:46;20.20;69.40
2441;DHT22;1231;53.988;9.470;2023-07-13T18:04:35;20.20;69.60
2441;DHT22;1231;53.988;9.470;2023-07-13T18:07:26;20.20;69.70
2441;DHT22;1231;53.988;9.470;2023-07-13T18:10:17;20.00;69.70
2441;DHT22;1231;53.988;9.470;2023-07-13T18:13:06;19.90;69.90
2441;DHT22;1231;53.988;9.470;2023-07-13T18:15:55;19.90;70.50
2441;DHT22;1231;53.988;9.470;2023-07-13T18:18:47;19.80;70.30
2441;DHT22;1231;53.988;9.470;2023-07-13T18:21:36;19.70;70.10
2441;DHT22;1231;53.988;9.470;2023-07-13T18:24:26;19.60;70.00
2441;DHT22;1231;53.988;9.470;2023-07-13T18:27:15;19.60;70.40
2441;DHT22;1231;53.988;9.470;2023-07-13T18:30:08;19.60;70.70
2441;DHT22;1231;53.988;9.470;2023-07-13T18:32:58;19.60;71.20
2441;DHT22;1231;53.988;9.470;2023-07-13T18:35:47;19.40;71.50
2441;DHT22;1231;53.988;9.470;2023-07-13T18:38:36;19.40;71.90
2441;DHT22;1231;53.988;9.470;2023-07-13T18:41:25;19.40;72.10
2441;DHT22;1231;53.988;9.470;2023-07-13T18:44:15;19.40;72.50
2441;DHT22;1231;53.988;9.470;2023-07-13T18:47:04;19.30;72.70
2441;DHT22;1231;53.988;9.470;2023-07-13T18:49:53;19.20;73.30
2441;DHT22;1231;53.988;9.470;2023-07-13T18:52:46;19.20;73.40
2441;DHT22;1231;53.988;9.470;2023-07-13T18:55:37;19.10;73.50
2441;DHT22;1231;53.988;9.470;2023-07-13T18:58:28;19.20;73.70
2441;DHT22;1231;53.988;9.470;2023-07-13T19:01:22;18.90;74.00
2441;DHT22;1231;53.988;9.470;2023-07-13T19:04:29;19.10;74.00
2441;DHT22;1231;53.988;9.470;2023-07-13T19:07:19;19.00;74.20
2441;DHT22;1231;53.988;9.470;2023-07-13T19:10:19;18.90;74.70
2441;DHT22;1231;53.988;9.470;2023-07-13T19:13:10;18.90;74.90
2441;DHT22;1231;53.988;9.470;2023-07-13T19:15:59;18.80;75.00
2441;DHT22;1231;53.988;9.470;2023-07-13T19:18:49;18.70;75.30
2441;DHT22;1231;53.988;9.470;2023-07-13T19:21:38;18.60;75.40
2441;DHT22;1231;53.988;9.470;2023-07-13T19:24:27;18.50;75.60
2441;DHT22;1231;53.988;9.470;2023-07-13T19:27:17;18.60;75.70
2441;DHT22;1231;53.988;9.470;2023-07-13T19:30:11;18.50;75.80
2441;DHT22;1231;53.988;9.470;2023-07-13T19:33:00;18.40;76.00
2441;DHT22;1231;53.988;9.470;2023-07-13T19:35:49;18.40;76.20
2441;DHT22;1231;53.988;9.470;2023-07-13T19:38:40;18.30;76.30
2441;DHT22;1231;53.988;9.470;2023-07-13T19:41:32;18.20;76.50
2441;DHT22;1231;53.988;9.470;2023-07-13T19:44:23;18.10;76.70
2441;DHT22;1231;53.988;9.470;2023-07-13T19:47:16;18.10;76.80
2441;DHT22;1231;53.988;9.470;2023-07-13T19:50:05;17.90;77.00
2441;DHT22;1231;53.988;9.470;2023-07-13T19:52:55;17.90;77.20
2441;DHT22;1231;53.988;9.470;2023-07-13T19:55:45;17.80;77.50
2441;DHT22;1231;53.988;9.470;2023-07-13T19:58:35;17.80;77.80
2441;DHT22;1231;53.988;9.470;2023-07-13T20:01:25;17.70;78.00
2441;DHT22;1231;53.988;9.470;2023-07-13T20:04:14;17.70;78.10
2441;DHT22;1231;53.988;9.470;2023-07-13T20:07:04;17.50;78.30
2441;DHT22;1231;53.988;9.470;2023-07-13T20:09:53;17.50;78.50
2441;DHT22;1231;53.988;9.470;2023-07-13T20:12:43;17.40;78.70
2441;DHT22;1231;53.988;9.470;2023-07-13T20:15:32;17.40;78.90
2441;DHT22;1231;53.988;9.470;2023-07-13T20:18:22;17.30;79.20
2441;DHT22;1231;53.988;9.470;2023-07-13T20:21:11;17.20;79.40
2441;DHT22;1231;53.988;9.470;2023-07-13T20:24:01;17.20;79.50
2441;DHT22;1231;53.988;9.470;2023-07-13T20:26:50;17.10;79.70
2441;DHT22;1231;53.988;9.470;2023-07-13T20:29:39;17.10;79.80
2441;DHT22;1231;53.988;9.470;2023-07-13T20:32:28;16.90;80.00
2441;DHT22;1231;53.988;9.470;2023-07-13T20:38:12;16.80;80.60
2441;DHT22;1231;53.988;9.470;2023-07-13T20:41:02;16.70;80.60
2441;DHT22;1231;53.988;9.470;2023-07-13T20:43:51;16.80;80.80
2441;DHT22;1231;53.988;9.470;2023-07-13T20:46:40;16.70;80.80
2441;DHT22;1231;53.988;9.470;2023-07-13T20:49:29;16.60;81.00
2441;DHT22;1231;53.988;9.470;2023-07-13T20:52:20;16.60;81.20
2441;DHT22;1231;53.988;9.470;2023-07-13T20:55:14;16.50;81.30
2441;DHT22;1231;53.988;9.470;2023-07-13T20:58:05;16.50;81.40
2441;DHT22;1231;53.988;9.470;2023-07-13T21:00:54;16.40;81.50
2441;DHT22;1231;53.988;9.470;2023-07-13T21:03:44;16.40;81.70
2441;DHT22;1231;53.988;9.470;2023-07-13T21:06:33;16.40;81.70
2441;DHT22;1231;53.988;9.470;2023-07-13T21:09:22;16.30;81.80
2441;DHT22;1231;53.988;9.470;2023-07-13T21:12:12;16.40;82.00
2441;DHT22;1231;53.988;9.470;2023-07-13T21:15:02;16.20;82.10
2441;DHT22;1231;53.988;9.470;2023-07-13T21:17:56;16.20;82.20
2441;DHT22;1231;53.988;9.470;2023-07-13T21:20:51;16.20;82.30
2441;DHT22;1231;53.988;9.470;2023-07-13T21:23:41;16.20;82.40
2441;DHT22;1231;53.988;9.470;2023-07-13T21:26:30;16.20;82.50
2441;DHT22;1231;53.988;9.470;2023-07-13T21:29:19;16.20;82.60
2441;DHT22;1231;53.988;9.470;2023-07-13T21:32:14;16.20;82.50
2441;DHT22;1231;53.988;9.470;2023-07-13T21:35:08;16.10;82.70
2441;DHT22;1231;53.988;9.470;2023-07-13T21:44:28;15.90;82.80
2441;DHT22;1231;53.988;9.470;2023-07-13T21:47:17;15.90;82.80
2441;DHT22;1231;53.988;9.470;2023-07-13T21:50:07;15.80;82.80
2441;DHT22;1231;53.988;9.470;2023-07-13T21:52:57;15.80;82.80
2441;DHT22;1231;53.988;9.470;2023-07-13T21:55:47;15.80;82.80
2441;DHT22;1231;53.988;9.470;2023-07-13T21:58:37;15.70;83.00
2441;DHT22;1231;53.988;9.470;2023-07-13T22:01:31;15.70;83.00
2441;DHT22;1231;53.988;9.470;2023-07-13T22:04:24;15.60;83.10
2441;DHT22;1231;53.988;9.470;2023-07-13T22:07:14;15.50;83.10
2441;DHT22;1231;53.988;9.470;2023-07-13T22:10:04;15.50;83.20
2441;DHT22;1231;53.988;9.470;2023-07-13T22:12:53;15.50;83.30
2441;DHT22;1231;53.988;9.470;2023-07-13T22:15:42;15.40;83.40
2441;DHT22;1231;53.988;9.470;2023-07-13T22:18:31;15.40;83.70
2441;DHT22;1231;53.988;9.470;2023-07-13T22:21:24;15.40;83.90
2441;DHT22;1231;53.988;9.470;2023-07-13T22:24:17;15.40;84.10
2441;DHT22;1231;53.988;9.470;2023-07-13T22:27:10;15.30;84.30
2441;DHT22;1231;53.988;9.470;2023-07-13T22:29:59;15.40;84.20
2441;DHT22;1231;53.988;9.470;2023-07-13T22:32:48;15.30;84.20
2441;DHT22;1231;53.988;9.470;2023-07-13T22:35:38;15.30;84.30
2441;DHT22;1231;53.988;9.470;2023-07-13T22:38:35;15.30;84.40
2441;DHT22;1231;53.988;9.470;2023-07-13T22:41:24;15.30;84.50
2441;DHT22;1231;53.988;9.470;2023-07-13T22:44:21;15.20;84.70
2441;DHT22;1231;53.988;9.470;2023-07-13T22:47:15;15.10;84.70
2441;DHT22;1231;53.988;9.470;2023-07-13T22:50:16;15.30;84.60
2441;DHT22;1231;53.988;9.470;2023-07-13T22:53:18;15.20;84.80
2441;DHT22;1231;53.988;9.470;2023-07-13T22:56:08;15.30;84.70
2441;DHT22;1231;53.988;9.470;2023-07-13T22:58:58;15.20;84.70
2441;DHT22;1231;53.988;9.470;2023-07-13T23:01:47;15.20;84.70
2441;DHT22;1231;53.988;9.470;2023-07-13T23:07:26;15.20;84.70
2441;DHT22;1231;53.988;9.470;2023-07-13T23:10:19;15.00;84.60
2441;DHT22;1231;53.988;9.470;2023-07-13T23:13:08;15.00;84.60
2441;DHT22;1231;53.988;9.470;2023-07-13T23:15:58;15.00;84.70
2441;DHT22;1231;53.988;9.470;2023-07-13T23:18:48;15.10;84.70
2441;DHT22;1231;53.988;9.470;2023-07-13T23:21:38;15.00;84.70
2441;DHT22;1231;53.988;9.470;2023-07-13T23:24:31;15.00;84.70
2441;DHT22;1231;53.988;9.470;2023-07-13T23:27:22;14.90;84.80
2441;DHT22;1231;53.988;9.470;2023-07-13T23:30:15;14.90;84.80
2441;DHT22;1231;53.988;9.470;2023-07-13T23:33:37;14.80;84.90
2441;DHT22;1231;53.988;9.470;2023-07-13T23:39:18;14.70;85.00
2441;DHT22;1231;53.988;9.470;2023-07-13T23:42:08;14.70;85.10
2441;DHT22;1231;53.988;9.470;2023-07-13T23:44:57;14.70;85.20
2441;DHT22;1231;53.988;9.470;2023-07-13T23:47:49;14.60;85.20
2441;DHT22;1231;53.988;9.470;2023-07-13T23:50:42;14.70;85.40
2441;DHT22;1231;53.988;9.470;2023-07-13T23:53:32;14.60;85.40
2441;DHT22;1231;53.988;9.470;2023-07-13T23:56:23;14.70;85.60